Time;durP1;ratioP1;P1;durP2;ratioP2;P2;SDS_P1;SDS_P2;PMS_P1;PMS_P2;Temp;Humidity;BMP_temperature;BMP_pressure;BME280_temperature;BME280_humidity;BME280_pressure;Samples;Min_cycle;Max_cycle;Signal;HPM_P1;HPM_P2
2021/07/07 00:01:03;;;;;;;3.22;1.70;;;;;;;18.95;55.87;101103.44;4974014;28;114532;-62
2021/07/07 00:03:31;;;;;;;3.63;1.90;;;;;;;18.91;55.87;101107.34;4973527;28;114101;-62
2021/07/07 00:05:58;;;;;;;3.50;1.90;;;;;;;18.91;55.94;101096.59;4971648;28;124201;-63
2021/07/07 00:08:25;;;;;;;3.90;1.88;;;;;;;18.90;55.97;101100.28;4990097;28;123914;-63
2021/07/07 00:10:53;;;;;;;3.55;1.70;;;;;;;18.89;56.05;101111.97;4973869;28;114958;-62
2021/07/07 00:13:20;;;;;;;2.72;1.70;;;;;;;18.88;56.02;101112.97;4973389;28;115646;-63
2021/07/07 00:15:47;;;;;;;5.95;1.67;;;;;;;18.86;55.80;101108.56;4975330;28;124416;-62
2021/07/07 00:18:14;;;;;;;3.63;2.00;;;;;;;18.86;56.22;101105.03;4974135;28;124327;-62
2021/07/07 00:20:55;;;;;;;2.40;1.63;;;;;;;18.84;56.16;101102.44;4973583;28;114492;-62
2021/07/07 00:23:27;;;;;;;3.50;1.58;;;;;;;18.83;56.38;101103.41;4973089;28;113616;-62
2021/07/07 00:25:55;;;;;;;2.97;1.75;;;;;;;18.84;56.36;101106.97;4975294;28;124462;-63
2021/07/07 00:28:23;;;;;;;3.67;1.73;;;;;;;18.83;56.24;101103.41;4978825;28;124037;-61
2021/07/07 00:30:51;;;;;;;2.97;1.85;;;;;;;18.83;56.06;101105.25;4977623;28;114639;-61
2021/07/07 00:36:16;;;;;;;4.95;2.30;;;;;;;18.79;56.09;101093.84;4946683;28;125657;-68
2021/07/07 00:38:43;;;;;;;4.82;2.38;;;;;;;18.77;55.93;101095.81;4934029;28;123642;-68
2021/07/07 00:41:11;;;;;;;4.03;2.10;;;;;;;18.73;56.24;101094.31;4932898;28;113995;-68
2021/07/07 00:43:40;;;;;;;5.00;2.60;;;;;;;18.71;56.27;101101.63;4952177;28;113123;-68
2021/07/07 00:46:07;;;;;;;4.15;2.60;;;;;;;18.68;56.40;101107.22;4939372;28;123682;-68
2021/07/07 00:48:34;;;;;;;3.28;2.65;;;;;;;18.64;56.27;101095.00;4956553;28;124318;-69
2021/07/07 00:51:01;;;;;;;5.45;3.08;;;;;;;18.63;56.20;101098.69;4954680;28;114496;-69
2021/07/07 00:53:29;;;;;;;4.78;3.28;;;;;;;18.59;56.55;101098.06;4952563;28;113979;-69
2021/07/07 00:55:58;;;;;;;5.10;3.25;;;;;;;18.58;56.42;101098.16;4954822;28;123981;-69
2021/07/07 00:58:26;;;;;;;4.80;3.20;;;;;;;18.57;56.43;101099.13;4954703;28;124300;-69
2021/07/07 01:00:53;;;;;;;5.70;3.28;;;;;;;18.56;56.42;101097.44;4938027;28;114684;-69
2021/07/07 01:03:20;;;;;;;4.65;3.33;;;;;;;18.54;56.30;101099.38;4953921;28;113221;-69
2021/07/07 01:05:47;;;;;;;5.13;3.10;;;;;;;18.52;56.09;101106.69;4957881;28;124264;-69
2021/07/07 01:08:15;;;;;;;5.47;3.45;;;;;;;18.48;56.22;101112.25;4958256;28;123673;-69
2021/07/07 01:10:42;;;;;;;4.90;3.20;;;;;;;18.46;56.45;101119.56;4956016;28;114486;-69
2021/07/07 01:13:12;;;;;;;5.85;3.60;;;;;;;18.41;56.25;101113.69;4955727;28;113940;-70
2021/07/07 01:15:42;;;;;;;6.50;3.75;;;;;;;18.38;56.35;101111.22;4936640;28;124358;-69
2021/07/07 01:18:10;;;;;;;4.70;3.30;;;;;;;18.36;56.44;101104.25;4954591;28;124376;-69
2021/07/07 01:20:39;;;;;;;6.15;3.47;;;;;;;18.32;56.55;101106.31;4958786;28;114507;-69
2021/07/07 01:23:07;;;;;;;5.28;3.65;;;;;;;18.28;56.29;101110.19;4939768;28;114154;-69
2021/07/07 01:25:35;;;;;;;6.55;4.50;;;;;;;18.24;56.40;101108.72;4953165;28;124031;-69
2021/07/07 01:28:04;;;;;;;7.38;4.60;;;;;;;18.17;56.64;101107.44;4954162;28;124082;-69
2021/07/07 01:30:31;;;;;;;6.82;3.97;;;;;;;18.09;56.64;101111.53;4955636;28;113989;-69
2021/07/07 01:32:59;;;;;;;5.50;4.25;;;;;;;18.06;56.94;101100.16;4956494;28;113788;-69
2021/07/07 01:35:26;;;;;;;5.55;3.97;;;;;;;18.04;57.01;101108.31;4955239;28;124768;-69
2021/07/07 01:37:54;;;;;;;6.10;4.22;;;;;;;18.03;57.05;101111.97;4956047;28;123982;-69
2021/07/07 01:40:24;;;;;;;5.82;3.72;;;;;;;18.02;56.92;101094.16;4938673;28;113213;-70
2021/07/07 01:42:52;;;;;;;5.10;3.85;;;;;;;18.00;56.78;101111.34;4941359;28;113864;-69
2021/07/07 01:45:22;;;;;;;5.53;3.88;;;;;;;17.98;56.82;101102.56;4952133;28;124247;-69
2021/07/07 01:47:51;;;;;;;5.00;3.35;;;;;;;17.96;56.80;101113.38;4956883;28;125317;-69
2021/07/07 01:50:21;;;;;;;6.15;3.70;;;;;;;17.93;57.08;101108.22;4957795;28;115504;-69
2021/07/07 01:52:48;;;;;;;5.18;3.70;;;;;;;17.91;57.13;101107.50;4957384;28;114588;-69
2021/07/07 01:55:16;;;;;;;4.65;3.80;;;;;;;17.87;57.09;101106.84;4939284;28;121303;-69
2021/07/07 01:57:47;;;;;;;5.28;3.78;;;;;;;17.85;57.10;101110.63;4938073;28;122757;-69
2021/07/07 02:00:22;;;;;;;5.63;3.75;;;;;;;17.82;57.13;101113.47;4951229;28;115158;-69
2021/07/07 02:02:51;;;;;;;5.13;3.70;;;;;;;17.80;57.39;101110.03;4957483;28;112857;-69
2021/07/07 02:05:22;;;;;;;5.88;3.78;;;;;;;17.76;57.20;101122.78;4938139;28;123355;-69
2021/07/07 02:07:49;;;;;;;5.80;4.05;;;;;;;17.71;57.39;101112.41;4955302;28;123869;-69
2021/07/07 02:10:19;;;;;;;5.00;3.83;;;;;;;17.66;57.52;101109.19;4955496;28;114227;-69
2021/07/07 02:12:46;;;;;;;6.00;3.80;;;;;;;17.60;57.53;101109.66;4957151;28;113853;-69
2021/07/07 02:15:18;;;;;;;7.22;3.70;;;;;;;17.57;57.70;101112.53;4934945;28;122970;-69
2021/07/07 02:17:46;;;;;;;4.72;3.10;;;;;;;17.55;57.73;101106.44;4956348;28;124029;-69
2021/07/07 02:20:14;;;;;;;5.22;3.55;;;;;;;17.53;57.89;101105.69;4939765;28;116327;-69
2021/07/07 02:22:43;;;;;;;4.47;3.33;;;;;;;17.54;57.85;101109.19;4954643;28;113834;-69
2021/07/07 02:25:16;;;;;;;4.32;3.00;;;;;;;17.52;57.96;101112.88;4952766;28;124286;-69
2021/07/07 02:27:44;;;;;;;4.30;3.45;;;;;;;17.52;57.87;101112.88;4936534;28;123672;-69
2021/07/07 02:30:14;;;;;;;6.15;3.55;;;;;;;17.53;57.94;101113.72;4938633;28;113663;-69
2021/07/07 02:32:43;;;;;;;4.88;3.38;;;;;;;17.53;57.70;101108.34;4954563;28;114008;-69
2021/07/07 02:35:14;;;;;;;5.88;3.70;;;;;;;17.52;57.87;101106.66;4956599;28;124024;-69
2021/07/07 02:37:42;;;;;;;5.07;3.33;;;;;;;17.52;57.76;101114.69;4956542;28;123949;-69
2021/07/07 02:40:11;;;;;;;4.45;3.08;;;;;;;17.51;57.83;101110.28;4954786;28;115810;-69
2021/07/07 02:42:38;;;;;;;5.03;3.33;;;;;;;17.49;58.06;101106.88;4953861;28;114368;-69
2021/07/07 02:45:08;;;;;;;4.15;3.30;;;;;;;17.48;58.02;101110.53;4954838;28;123264;-69
2021/07/07 02:47:35;;;;;;;5.60;3.03;;;;;;;17.46;58.30;101117.78;4954253;28;124640;-69
2021/07/07 02:50:04;;;;;;;7.20;3.40;;;;;;;17.45;58.40;101108.03;4955164;28;114432;-69
2021/07/07 02:52:32;;;;;;;4.90;3.40;;;;;;;17.44;58.41;101109.00;4937759;28;113679;-69
2021/07/07 02:54:59;;;;;;;5.25;3.33;;;;;;;17.45;58.47;101108.03;4950632;28;124870;-69
2021/07/07 02:57:26;;;;;;;4.63;3.60;;;;;;;17.45;58.41;101110.72;4952688;28;125270;-69
2021/07/07 02:59:53;;;;;;;4.85;3.38;;;;;;;17.45;58.35;101111.56;4938533;28;114017;-69
2021/07/07 03:02:20;;;;;;;5.20;3.53;;;;;;;17.45;58.45;101113.41;4954973;28;114358;-69
2021/07/07 03:04:47;;;;;;;5.10;3.78;;;;;;;17.44;58.46;101114.34;4956433;28;123623;-69
2021/07/07 03:07:14;;;;;;;5.47;3.65;;;;;;;17.45;58.47;101121.44;4950886;28;122923;-69
2021/07/07 03:09:41;;;;;;;6.22;3.53;;;;;;;17.44;58.54;101125.94;4951590;28;113775;-69
2021/07/07 03:12:08;;;;;;;7.05;3.53;;;;;;;17.45;58.51;101110.72;4955047;28;114091;-69
2021/07/07 03:14:35;;;;;;;7.28;3.75;;;;;;;17.45;58.59;101116.09;4953668;28;123777;-69
2021/07/07 03:17:03;;;;;;;6.97;4.00;;;;;;;17.45;58.79;101110.72;4954380;28;124946;-69
2021/07/07 03:19:30;;;;;;;5.72;3.70;;;;;;;17.45;58.71;101127.63;4951050;28;114707;-69
2021/07/07 03:21:57;;;;;;;6.30;3.80;;;;;;;17.46;58.64;101128.50;4953313;28;114289;-69
2021/07/07 03:24:24;;;;;;;4.90;3.80;;;;;;;17.45;58.59;101122.28;4949741;28;123333;-69
2021/07/07 03:26:51;;;;;;;5.00;4.03;;;;;;;17.47;58.70;101135.56;4954344;28;124543;-69
2021/07/07 03:29:18;;;;;;;5.75;3.80;;;;;;;17.46;58.58;101139.19;4952042;28;114580;-69
2021/07/07 03:31:45;;;;;;;4.93;3.70;;;;;;;17.45;58.68;101137.50;4938225;28;113666;-69
2021/07/07 03:34:12;;;;;;;5.45;3.85;;;;;;;17.46;58.63;101147.22;4936660;28;123438;-68
2021/07/07 03:36:39;;;;;;;6.65;3.80;;;;;;;17.45;58.51;101142.84;4955553;28;124634;-69
2021/07/07 03:39:06;;;;;;;5.35;3.47;;;;;;;17.45;58.61;101146.38;4953551;28;114569;-69
2021/07/07 03:41:33;;;;;;;5.25;3.47;;;;;;;17.46;58.75;101139.19;4951939;28;113853;-69
2021/07/07 03:44:00;;;;;;;6.28;3.80;;;;;;;17.44;58.71;101142.00;4949230;28;124141;-69
2021/07/07 03:46:27;;;;;;;7.78;3.88;;;;;;;17.45;58.72;101138.34;4954553;28;124398;-69
2021/07/07 03:48:54;;;;;;;5.70;3.80;;;;;;;17.46;58.57;101139.19;4953845;28;115916;-68
2021/07/07 03:51:21;;;;;;;9.65;3.90;;;;;;;17.46;58.71;101132.03;4950224;28;114461;-68
2021/07/07 03:53:48;;;;;;;7.05;3.80;;;;;;;17.48;58.83;101137.31;4951217;28;124245;-68
2021/07/07 03:56:16;;;;;;;6.88;4.18;;;;;;;17.47;58.79;101147.13;4953151;28;123820;-68
2021/07/07 03:58:43;;;;;;;5.07;3.90;;;;;;;17.47;58.62;101146.28;4952412;28;113097;-68
2021/07/07 04:01:10;;;;;;;5.63;3.70;;;;;;;17.48;58.81;101142.66;4952353;28;113029;-68
2021/07/07 04:03:37;;;;;;;6.72;4.40;;;;;;;17.48;58.95;101148.00;4948944;28;126678;-69
2021/07/07 04:06:04;;;;;;;6.70;4.45;;;;;;;17.49;59.02;101149.72;4953340;28;123782;-68
2021/07/07 04:08:32;;;;;;;6.95;4.07;;;;;;;17.49;58.89;101144.34;4951810;28;113382;-69
2021/07/07 04:10:59;;;;;;;6.13;3.72;;;;;;;17.53;59.08;101156.56;4928207;28;114478;-69
2021/07/07 04:13:28;;;;;;;6.72;3.97;;;;;;;17.55;58.92;101165.34;4923355;28;123160;-69
2021/07/07 04:15:56;;;;;;;7.28;4.05;;;;;;;17.57;58.94;101168.78;4938956;28;123256;-69
2021/07/07 04:18:23;;;;;;;6.38;4.05;;;;;;;17.60;59.01;101171.25;4958131;28;114924;-69
2021/07/07 04:20:50;;;;;;;6.25;4.18;;;;;;;17.64;59.12;101170.06;4966549;28;115302;-69
2021/07/07 04:23:18;;;;;;;6.47;4.18;;;;;;;17.67;59.19;101175.22;4960367;28;123940;-69
2021/07/07 04:25:45;;;;;;;8.15;3.97;;;;;;;17.71;59.06;101182.06;4953337;28;124597;-69
2021/07/07 04:28:12;;;;;;;5.68;4.13;;;;;;;17.76;59.23;101183.56;4959856;28;114198;-69
2021/07/07 04:30:39;;;;;;;6.00;4.18;;;;;;;17.80;59.36;101179.72;4952859;28;114616;-69
2021/07/07 04:33:06;;;;;;;9.27;4.45;;;;;;;17.85;59.11;101186.50;4956604;28;124504;-69
2021/07/07 04:35:33;;;;;;;7.78;3.85;;;;;;;17.90;59.26;101186.19;4953555;28;124218;-69
2021/07/07 04:38:00;;;;;;;7.60;4.10;;;;;;;17.95;59.35;101186.72;4953775;28;113203;-69
2021/07/07 04:40:27;;;;;;;9.48;4.05;;;;;;;17.99;59.39;101190.91;4953373;28;114705;-68
2021/07/07 04:42:54;;;;;;;8.77;4.18;;;;;;;18.04;59.44;101180.69;4951599;28;124131;-69
2021/07/07 04:45:21;;;;;;;5.97;3.78;;;;;;;18.11;59.34;101182.94;4951939;28;122962;-69
2021/07/07 04:47:49;;;;;;;6.95;3.58;;;;;;;18.17;59.43;101182.50;4951535;28;114557;-69
2021/07/07 04:50:18;;;;;;;7.68;3.70;;;;;;;18.24;59.31;101178.41;4950563;28;113062;-68
2021/07/07 04:52:45;;;;;;;5.95;3.80;;;;;;;18.30;59.17;101186.00;4953298;28;123972;-69
2021/07/07 04:55:13;;;;;;;9.05;3.50;;;;;;;18.35;59.28;101180.34;4950618;28;125520;-69
2021/07/07 04:57:42;;;;;;;6.88;3.92;;;;;;;18.40;59.03;101179.03;4940893;28;113560;-68
2021/07/07 05:00:15;;;;;;;6.72;3.60;;;;;;;18.46;59.23;101189.31;4950780;28;113560;-68
2021/07/07 05:02:43;;;;;;;6.78;3.78;;;;;;;18.53;59.12;101175.44;4947886;28;124461;-69
2021/07/07 05:05:12;;;;;;;6.82;3.53;;;;;;;18.58;59.11;101175.97;4951220;28;123609;-68
2021/07/07 05:07:40;;;;;;;5.85;3.88;;;;;;;18.65;59.22;101185.28;4949024;28;115343;-69
2021/07/07 05:10:08;;;;;;;9.70;3.47;;;;;;;18.71;59.05;101192.03;4932759;28;114330;-68
2021/07/07 05:12:35;;;;;;;6.45;3.33;;;;;;;18.75;59.06;101186.28;4950163;28;124883;-68
2021/07/07 05:15:05;;;;;;;8.25;3.58;;;;;;;18.79;58.82;101190.47;4950997;28;124929;-69
2021/07/07 05:17:33;;;;;;;4.90;3.53;;;;;;;18.84;58.66;101193.69;4917606;28;114251;-68
2021/07/07 05:20:00;;;;;;;6.28;3.40;;;;;;;18.89;58.69;101190.66;4950644;28;113041;-68
2021/07/07 05:22:27;;;;;;;7.90;3.30;;;;;;;18.92;58.78;101190.44;4953151;28;122954;-68
2021/07/07 05:24:55;;;;;;;5.18;3.35;;;;;;;18.95;58.77;101194.72;4951332;28;123842;-68
2021/07/07 05:27:22;;;;;;;5.85;3.50;;;;;;;18.97;58.69;101187.44;4951426;28;114300;-69
2021/07/07 05:29:49;;;;;;;6.80;3.45;;;;;;;18.99;58.74;101199.75;4951939;28;114164;-71
2021/07/07 05:32:22;;;;;;;8.95;3.60;;;;;;;19.01;58.70;101199.66;4950151;28;127060;-69
2021/07/07 05:34:50;;;;;;;9.27;3.90;;;;;;;19.06;58.56;101202.81;4924574;28;124530;-69
2021/07/07 05:37:20;;;;;;;7.00;3.80;;;;;;;19.10;58.75;101209.69;4948118;28;114291;-69
2021/07/07 05:39:48;;;;;;;10.40;4.00;;;;;;;19.14;58.68;101211.16;4949627;28;113132;-69
2021/07/07 05:42:18;;;;;;;6.38;3.88;;;;;;;19.20;58.78;101210.69;4948680;28;124142;-69
2021/07/07 05:44:48;;;;;;;4.38;3.20;;;;;;;19.25;58.69;101210.38;4936746;28;124453;-70
2021/07/07 05:47:16;;;;;;;5.88;3.35;;;;;;;19.33;58.71;101217.84;4929170;28;114847;-70
2021/07/07 05:49:43;;;;;;;6.40;3.30;;;;;;;19.39;58.70;101214.69;4950208;28;113775;-70
2021/07/07 05:52:11;;;;;;;8.13;3.58;;;;;;;19.45;58.68;101211.50;4951506;28;124272;-70
2021/07/07 05:54:38;;;;;;;8.45;3.50;;;;;;;19.53;58.80;101216.28;4950829;28;124463;-70
2021/07/07 05:57:05;;;;;;;12.48;3.78;;;;;;;19.60;58.77;101218.38;4950261;28;114774;-70
2021/07/07 05:59:32;;;;;;;5.35;3.28;;;;;;;19.70;58.67;101223.06;4946196;28;115209;-70
2021/07/07 06:02:00;;;;;;;8.32;3.60;;;;;;;19.78;58.68;101215.31;4947339;28;121921;-70
2021/07/07 06:04:27;;;;;;;5.75;3.15;;;;;;;19.87;58.61;101211.88;4950196;28;124461;-69
2021/07/07 06:06:54;;;;;;;5.22;3.40;;;;;;;19.97;58.35;101220.09;4951039;28;114668;-71
2021/07/07 06:09:21;;;;;;;5.35;3.10;;;;;;;20.05;58.43;101216.78;4950968;28;114080;-71
2021/07/07 06:11:48;;;;;;;8.30;2.80;;;;;;;20.14;58.33;101218.75;4951385;28;124046;-70
2021/07/07 06:14:15;;;;;;;6.47;2.72;;;;;;;20.25;58.09;101218.75;4949302;28;123955;-71
2021/07/07 06:16:46;;;;;;;5.90;2.55;;;;;;;20.34;58.13;101228.78;4949869;28;114578;-70
2021/07/07 06:19:13;;;;;;;4.07;2.30;;;;;;;20.46;58.01;101226.09;4952525;28;114230;-71
2021/07/07 06:21:41;;;;;;;5.13;2.25;;;;;;;20.56;57.89;101237.78;4950151;28;123469;-70
2021/07/07 06:24:08;;;;;;;6.13;2.38;;;;;;;20.66;57.70;101236.09;4932424;28;123271;-70
2021/07/07 06:26:35;;;;;;;10.57;2.83;;;;;;;20.75;57.42;101243.41;4950099;28;114227;-70
2021/07/07 06:29:06;;;;;;;6.75;2.50;;;;;;;20.83;57.35;101250.00;4947025;28;113330;-70
2021/07/07 06:31:33;;;;;;;5.72;2.80;;;;;;;20.90;57.13;101251.22;4933300;28;124132;-70
2021/07/07 06:34:00;;;;;;;4.38;2.47;;;;;;;20.97;56.83;101241.66;4949797;28;124502;-69
2021/07/07 06:36:27;;;;;;;5.03;2.65;;;;;;;21.02;56.82;101244.84;4962943;28;114092;-70
2021/07/07 06:38:54;;;;;;;8.18;2.60;;;;;;;21.06;56.79;101243.59;4951148;28;113820;-70
2021/07/07 06:41:21;;;;;;;4.82;2.58;;;;;;;21.09;56.41;101240.63;4950288;28;123845;-70
2021/07/07 06:43:48;;;;;;;4.80;2.38;;;;;;;21.11;56.35;101243.19;4951441;28;123478;-70
2021/07/07 06:46:15;;;;;;;5.55;2.65;;;;;;;21.12;56.45;101236.84;4933649;28;114115;-71
2021/07/07 06:48:43;;;;;;;5.80;2.75;;;;;;;21.14;56.25;101243.81;4949941;28;114728;-70
2021/07/07 06:51:10;;;;;;;6.82;2.90;;;;;;;21.22;56.18;101234.22;4950972;28;123052;-70
2021/07/07 06:53:37;;;;;;;4.53;2.60;;;;;;;21.32;56.33;101240.53;4919442;28;122972;-70
2021/07/07 06:56:04;;;;;;;6.50;2.83;;;;;;;21.44;56.31;101233.28;4950542;28;113990;-71
2021/07/07 06:58:31;;;;;;;5.00;2.78;;;;;;;21.56;56.14;101238.50;4920385;28;113572;-70
2021/07/07 07:00:59;;;;;;;7.68;2.63;;;;;;;21.70;56.36;101234.63;4950668;28;124259;-70
2021/07/07 07:03:26;;;;;;;4.25;2.40;;;;;;;21.87;56.35;101243.09;4946748;28;123848;-70
2021/07/07 07:05:53;;;;;;;4.97;2.80;;;;;;;22.04;55.86;101247.00;4950680;28;114132;-70
2021/07/07 07:08:20;;;;;;;5.55;2.35;;;;;;;22.21;55.69;101249.09;4946903;28;112997;-70
2021/07/07 07:10:47;;;;;;;5.25;2.40;;;;;;;22.37;55.66;101258.56;4949792;28;123297;-70
2021/07/07 07:13:14;;;;;;;7.25;2.45;;;;;;;22.50;55.03;101261.88;4952275;28;122688;-70
2021/07/07 07:15:42;;;;;;;6.82;2.35;;;;;;;22.65;55.12;101262.38;4932711;28;114169;-70
2021/07/07 07:18:09;;;;;;;5.30;2.40;;;;;;;22.82;54.82;101271.66;4949948;28;113518;-71
2021/07/07 07:20:36;;;;;;;6.50;2.35;;;;;;;22.98;54.39;101273.81;4950873;28;124129;-70
2021/07/07 07:23:04;;;;;;;5.28;2.08;;;;;;;23.13;54.38;101278.72;4951462;28;124097;-70
2021/07/07 07:25:32;;;;;;;4.78;1.98;;;;;;;23.28;54.06;101280.97;4951359;28;114648;-70
2021/07/07 07:27:59;;;;;;;3.83;2.05;;;;;;;23.43;53.84;101279.59;4937154;28;113990;-70
2021/07/07 07:30:27;;;;;;;6.05;1.92;;;;;;;23.58;53.13;101277.28;4951130;28;124196;-71
2021/07/07 07:32:54;;;;;;;6.32;2.10;;;;;;;23.70;53.28;101286.97;4951425;28;123677;-71
2021/07/07 07:35:22;;;;;;;3.70;1.60;;;;;;;23.84;53.04;101282.97;4950172;28;115530;-70
2021/07/07 07:38:03;;;;;;;4.10;1.70;;;;;;;24.00;52.64;101282.38;4949807;28;115587;-71
2021/07/07 07:40:35;;;;;;;3.17;1.60;;;;;;;24.15;52.12;101290.91;4933231;28;122760;-71
2021/07/07 07:43:05;;;;;;;4.15;1.60;;;;;;;24.30;51.97;101288.56;4948542;28;125634;-71
2021/07/07 07:45:33;;;;;;;2.88;1.55;;;;;;;24.44;51.79;101298.06;4950587;28;114549;-71
2021/07/07 07:48:00;;;;;;;5.03;1.73;;;;;;;24.53;51.04;101294.50;4949136;28;112940;-71
2021/07/07 07:50:28;;;;;;;4.05;1.60;;;;;;;24.62;51.39;101299.00;4948939;28;124011;-71
2021/07/07 07:52:55;;;;;;;4.35;1.73;;;;;;;24.72;50.93;101295.41;4951520;28;123814;-71
2021/07/07 07:55:22;;;;;;;5.70;1.75;;;;;;;24.84;50.80;101296.91;4949663;28;113504;-72
2021/07/07 07:57:50;;;;;;;5.78;1.50;;;;;;;24.94;50.19;101295.00;4951413;28;113853;-71
2021/07/07 08:00:19;;;;;;;4.32;1.60;;;;;;;25.01;49.89;101304.19;4947184;28;123629;-72
2021/07/07 08:02:46;;;;;;;4.07;1.67;;;;;;;25.09;49.54;101294.47;4949081;28;123895;-71
2021/07/07 08:05:15;;;;;;;4.07;1.45;;;;;;;25.14;49.39;101292.16;4950132;28;114202;-71
2021/07/07 08:07:43;;;;;;;3.08;1.40;;;;;;;25.17;49.08;101297.28;4951219;28;114264;-71
2021/07/07 08:10:18;;;;;;;5.65;1.60;;;;;;;25.20;48.87;101296.94;4949040;28;122992;-71
2021/07/07 08:12:50;;;;;;;1.95;1.27;;;;;;;25.28;48.97;101305.22;4935208;28;123946;-72
2021/07/07 08:15:19;;;;;;;4.38;1.70;;;;;;;25.33;48.71;101308.28;4945034;28;114566;-70
2021/07/07 08:17:46;;;;;;;4.13;1.40;;;;;;;25.36;48.54;101297.16;4936530;28;113290;-71
2021/07/07 08:20:15;;;;;;;3.28;1.50;;;;;;;25.41;48.37;101300.25;4932779;28;124111;-71
2021/07/07 08:22:42;;;;;;;5.68;1.60;;;;;;;25.51;48.39;101310.19;4946228;28;123875;-71
2021/07/07 08:25:11;;;;;;;6.47;1.60;;;;;;;25.58;47.91;101305.81;4949846;28;115221;-70
2021/07/07 08:27:38;;;;;;;2.40;1.20;;;;;;;25.67;47.99;101310.28;4936908;28;113208;-71
2021/07/07 08:30:08;;;;;;;4.03;1.48;;;;;;;25.78;47.62;101303.78;4951795;28;124350;-70
2021/07/07 08:32:35;;;;;;;5.35;1.50;;;;;;;25.87;47.57;101310.13;4947995;28;123335;-70
2021/07/07 08:35:03;;;;;;;3.42;1.67;;;;;;;25.96;47.22;101314.66;4945354;28;113840;-70
2021/07/07 08:37:31;;;;;;;4.78;1.48;;;;;;;26.03;47.29;101312.97;4947772;28;114150;-72
2021/07/07 08:39:58;;;;;;;5.97;1.70;;;;;;;26.11;47.34;101315.78;4951466;28;123462;-71
2021/07/07 08:42:26;;;;;;;3.83;1.33;;;;;;;26.18;46.37;101310.53;4952554;28;123413;-69
2021/07/07 08:44:53;;;;;;;6.40;1.60;;;;;;;26.25;46.23;101314.31;4951290;28;113475;-70
2021/07/07 08:47:20;;;;;;;4.90;1.60;;;;;;;26.28;45.71;101318.59;4950814;28;113222;-70
2021/07/07 08:49:47;;;;;;;4.22;1.30;;;;;;;26.27;45.48;101316.88;4934225;28;124160;-70
2021/07/07 08:52:16;;;;;;;5.22;1.45;;;;;;;26.19;45.59;101321.25;4940246;28;123196;-70
2021/07/07 08:54:47;;;;;;;3.72;1.60;;;;;;;26.17;45.53;101317.84;4955334;28;114116;-70
2021/07/07 08:57:14;;;;;;;5.38;1.50;;;;;;;26.17;45.91;101328.69;4953854;28;113982;-70
2021/07/07 08:59:41;;;;;;;4.45;1.52;;;;;;;26.15;45.63;101330.72;4937425;28;124475;-69
2021/07/07 09:02:10;;;;;;;4.28;1.70;;;;;;;26.12;45.42;101325.59;4952911;28;124427;-70
2021/07/07 09:04:40;;;;;;;4.15;1.30;;;;;;;26.07;45.16;101327.97;4949087;28;114710;-70
2021/07/07 09:07:13;;;;;;;4.93;1.40;;;;;;;26.03;45.47;101334.69;4950624;28;113794;-71
2021/07/07 09:09:41;;;;;;;4.00;1.30;;;;;;;26.10;45.75;101333.06;4952479;28;123381;-71
2021/07/07 09:12:25;;;;;;;5.72;1.45;;;;;;;26.20;45.39;101339.25;4955472;28;122951;-70
2021/07/07 09:15:02;;;;;;;5.45;1.52;;;;;;;26.32;46.21;101330.84;4933894;28;115272;-70
2021/07/07 09:17:39;;;;;;;2.83;1.30;;;;;;;26.45;45.99;101335.81;4953514;28;114572;-71
2021/07/07 09:20:18;;;;;;;3.53;1.40;;;;;;;26.55;45.02;101345.56;4932384;28;123942;-71
2021/07/07 09:22:47;;;;;;;4.30;1.27;;;;;;;26.64;44.84;101351.09;4937627;28;123490;-71
2021/07/07 09:25:18;;;;;;;5.15;2.13;;;;;;;26.72;44.55;101348.41;4953396;28;114089;-71
2021/07/07 09:27:46;;;;;;;3.53;1.23;;;;;;;26.75;44.23;101343.50;4948799;28;113749;-70
2021/07/07 09:30:14;;;;;;;4.00;1.50;;;;;;;26.79;44.03;101349.44;4935690;28;123069;-70
2021/07/07 09:32:47;;;;;;;3.90;1.25;;;;;;;26.87;44.10;101352.19;4953001;28;124339;-71
2021/07/07 09:35:20;;;;;;;4.78;1.35;;;;;;;26.91;43.85;101359.00;4934323;28;114429;-70
2021/07/07 09:37:55;;;;;;;4.55;1.35;;;;;;;26.95;43.79;101352.22;4952502;28;114073;-70
2021/07/07 09:40:23;;;;;;;3.03;1.17;;;;;;;26.97;43.54;101352.94;4951048;28;123718;-71
2021/07/07 09:42:50;;;;;;;3.55;1.30;;;;;;;26.97;43.33;101358.38;4952319;28;124109;-70
2021/07/07 09:45:21;;;;;;;5.15;1.27;;;;;;;26.93;42.74;101362.41;4948011;28;114452;-71
2021/07/07 09:47:50;;;;;;;3.67;1.23;;;;;;;26.92;42.60;101366.16;4927846;28;114035;-70
2021/07/07 09:50:18;;;;;;;3.53;1.50;;;;;;;26.92;43.02;101363.44;4952870;28;124738;-71
2021/07/07 09:52:46;;;;;;;3.08;1.20;;;;;;;26.94;42.58;101364.13;4952325;28;125155;-71
2021/07/07 09:55:14;;;;;;;4.47;1.40;;;;;;;26.92;42.85;101377.03;4952783;28;114320;-72
2021/07/07 09:57:46;;;;;;;4.70;1.50;;;;;;;26.91;42.28;101369.88;4953751;28;114290;-71
2021/07/07 10:00:14;;;;;;;3.03;1.20;;;;;;;26.88;42.14;101367.50;4949115;28;123131;-71
2021/07/07 10:02:42;;;;;;;4.95;1.30;;;;;;;26.86;42.38;101376.81;4951137;28;121739;-71
2021/07/07 10:05:14;;;;;;;9.38;1.70;;;;;;;26.82;42.74;101370.84;4951247;28;115470;-71
2021/07/07 10:07:43;;;;;;;3.88;1.63;;;;;;;26.78;42.58;101380.34;4950236;28;114805;-71
2021/07/07 10:10:15;;;;;;;5.03;1.45;;;;;;;26.74;42.31;101384.41;4935955;28;123284;-71
2021/07/07 10:12:45;;;;;;;4.82;1.38;;;;;;;26.71;42.29;101384.72;4957790;28;124481;-71
2021/07/07 10:15:15;;;;;;;4.20;1.45;;;;;;;26.66;42.50;101387.09;4951729;28;114033;-71
2021/07/07 10:17:43;;;;;;;3.83;1.45;;;;;;;26.61;42.39;101384.84;4950234;28;114331;-71
2021/07/07 10:20:13;;;;;;;4.70;1.40;;;;;;;26.56;42.59;101393.47;4933855;28;123770;-71
2021/07/07 10:22:42;;;;;;;2.90;1.50;;;;;;;26.53;42.67;101387.50;4953445;28;123246;-72
2021/07/07 10:25:19;;;;;;;3.50;1.33;;;;;;;26.49;42.09;101386.97;4935090;28;113627;-72
2021/07/07 10:27:48;;;;;;;4.13;1.52;;;;;;;26.52;42.79;101397.50;4947783;28;113876;-71
2021/07/07 10:30:16;;;;;;;4.03;1.33;;;;;;;26.55;42.98;101391.75;4935065;28;124343;-71
2021/07/07 10:33:08;;;;;;;3.30;1.35;;;;;;;26.59;42.99;101387.72;4948891;28;123095;-71
2021/07/07 10:35:37;;;;;;;4.55;1.30;;;;;;;26.64;42.62;101394.56;4950400;28;114091;-70
2021/07/07 10:38:05;;;;;;;4.20;1.40;;;;;;;26.64;42.55;101394.56;4949851;28;114331;-71
2021/07/07 10:40:39;;;;;;;3.50;1.23;;;;;;;26.65;42.82;101390.81;4933075;28;123818;-71
2021/07/07 10:43:07;;;;;;;4.07;1.20;;;;;;;26.66;42.37;101403.41;4951055;28;122778;-72
2021/07/07 10:45:41;;;;;;;3.60;1.30;;;;;;;26.67;42.52;101405.09;4950751;28;114638;-72
2021/07/07 10:48:28;;;;;;;4.10;1.30;;;;;;;26.64;42.51;101408.16;4950554;28;113465;-71
2021/07/07 10:51:00;;;;;;;2.92;1.05;;;;;;;26.60;42.76;101413.88;4954336;28;124334;-71
2021/07/07 10:53:34;;;;;;;3.10;1.20;;;;;;;26.56;42.57;101408.88;4939229;28;123601;-72
2021/07/07 10:56:06;;;;;;;2.38;1.38;;;;;;;26.54;42.49;101411.78;4951283;28;114962;-71
2021/07/07 10:58:37;;;;;;;3.30;1.40;;;;;;;26.54;42.65;101414.50;4952624;28;113967;-71
2021/07/07 11:01:33;;;;;;;2.42;1.20;;;;;;;26.61;43.20;101423.72;4949549;28;124689;-71
2021/07/07 11:04:02;;;;;;;3.72;1.40;;;;;;;26.70;42.94;101410.22;4920959;28;124153;-71
2021/07/07 11:06:37;;;;;;;3.47;1.50;;;;;;;26.75;43.14;101418.75;4951184;28;97096;-71
2021/07/07 11:09:07;;;;;;;4.50;1.33;;;;;;;26.84;42.65;101411.47;4947503;28;113389;-72
2021/07/07 11:11:36;;;;;;;2.53;1.40;;;;;;;26.87;41.88;101422.88;4947462;28;125320;-71
2021/07/07 11:14:29;;;;;;;4.82;1.20;;;;;;;26.89;41.82;101420.00;4949167;28;124448;-71
2021/07/07 11:17:00;;;;;;;4.72;1.48;;;;;;;26.97;41.69;101428.19;4948228;28;113714;-71
2021/07/07 11:19:43;;;;;;;4.13;1.35;;;;;;;27.00;41.83;101423.28;4938222;28;112077;-72
2021/07/07 11:22:12;;;;;;;3.70;1.30;;;;;;;27.06;41.69;101432.63;4928290;28;124371;-71
2021/07/07 11:24:48;;;;;;;3.50;1.25;;;;;;;27.12;41.74;101431.13;4921725;28;123120;-71
2021/07/07 11:27:16;;;;;;;2.58;1.20;;;;;;;27.22;41.70;101429.16;4945916;28;114291;-71